sensor_id;sensor_type;location;lat;lon;timestamp;pressure;altitude;pressure_sealevel;temperature;humidity
46836;BME280;32573;51.290;6.926;2023-04-19T00:00:32;101192.81;;;11.68;100.00
46836;BME280;32573;51.290;6.926;2023-04-19T00:03:01;101188.34;;;11.65;100.00
46836;BME280;32573;51.290;6.926;2023-04-19T00:05:30;101184.84;;;11.65;100.00
46836;BME280;32573;51.290;6.926;2023-04-19T00:07:59;101182.22;;;11.65;100.00
46836;BME280;32573;51.290;6.926;2023-04-19T00:10:27;101177.81;;;11.64;100.00
46836;BME280;32573;51.290;6.926;2023-04-19T00:12:56;101176.84;;;11.62;100.00
46836;BME280;32573;51.290;6.926;2023-04-19T00:15:25;101176.84;;;11.62;100.00
46836;BME280;32573;51.290;6.926;2023-04-19T00:17:55;101175.09;;;11.61;100.00
46836;BME280;32573;51.290;6.926;2023-04-19T00:20:23;101175.09;;;11.61;100.00
46836;BME280;32573;51.290;6.926;2023-04-19T00:22:52;101168.88;;;11.59;100.00
46836;BME280;32573;51.290;6.926;2023-04-19T00:25:20;101166.25;;;11.59;100.00
46836;BME280;32573;51.290;6.926;2023-04-19T00:27:49;101160.03;;;11.57;100.00
46836;BME280;32573;51.290;6.926;2023-04-19T00:30:18;101168.75;;;11.56;100.00
46836;BME280;32573;51.290;6.926;2023-04-19T00:32:47;101163.50;;;11.56;100.00
46836;BME280;32573;51.290;6.926;2023-04-19T00:35:18;101166.13;;;11.56;100.00
46836;BME280;32573;51.290;6.926;2023-04-19T00:37:46;101171.38;;;11.56;100.00
46836;BME280;32573;51.290;6.926;2023-04-19T00:40:15;101164.34;;;11.55;100.00
46836;BME280;32573;51.290;6.926;2023-04-19T00:42:43;101167.78;;;11.54;100.00
46836;BME280;32573;51.290;6.926;2023-04-19T00:45:13;101165.19;;;11.54;100.00
46836;BME280;32573;51.290;6.926;2023-04-19T00:47:41;101161.66;;;11.53;100.00
46836;BME280;32573;51.290;6.926;2023-04-19T00:50:11;101161.66;;;11.53;100.00
46836;BME280;32573;51.290;6.926;2023-04-19T00:52:42;101165.09;;;11.52;100.00
46836;BME280;32573;51.290;6.926;2023-04-19T00:55:11;101158.97;;;11.52;100.00
46836;BME280;32573;51.290;6.926;2023-04-19T00:57:40;101176.47;;;11.53;100.00
46836;BME280;32573;51.290;6.926;2023-04-19T01:00:09;101161.59;;;11.52;100.00
46836;BME280;32573;51.290;6.926;2023-04-19T01:02:38;101164.22;;;11.52;100.00
46836;BME280;32573;51.290;6.926;2023-04-19T01:05:07;101163.31;;;11.51;100.00
46836;BME280;32573;51.290;6.926;2023-04-19T01:07:36;101154.50;;;11.49;100.00
46836;BME280;32573;51.290;6.926;2023-04-19T01:10:07;101151.94;;;11.51;100.00
46836;BME280;32573;51.290;6.926;2023-04-19T01:12:35;101154.56;;;11.51;100.00
46836;BME280;32573;51.290;6.926;2023-04-19T01:15:05;101151.94;;;11.51;100.00
46836;BME280;32573;51.290;6.926;2023-04-19T01:17:34;101156.28;;;11.50;100.00
46836;BME280;32573;51.290;6.926;2023-04-19T01:20:05;101153.66;;;11.50;100.00
46836;BME280;32573;51.290;6.926;2023-04-19T01:22:35;101151.00;;;11.49;100.00
46836;BME280;32573;51.290;6.926;2023-04-19T01:25:05;101157.19;;;11.51;100.00
46836;BME280;32573;51.290;6.926;2023-04-19T01:27:35;101141.38;;;11.49;100.00
46836;BME280;32573;51.290;6.926;2023-04-19T01:30:04;101144.00;;;11.49;100.00
46836;BME280;32573;51.290;6.926;2023-04-19T01:32:33;101138.75;;;11.49;100.00
46836;BME280;32573;51.290;6.926;2023-04-19T01:35:02;101137.88;;;11.49;100.00
46836;BME280;32573;51.290;6.926;2023-04-19T01:37:35;101142.19;;;11.48;100.00
46836;BME280;32573;51.290;6.926;2023-04-19T01:40:04;101137.88;;;11.49;100.00
46836;BME280;32573;51.290;6.926;2023-04-19T01:42:33;101137.88;;;11.49;100.00
46836;BME280;32573;51.290;6.926;2023-04-19T01:45:02;101144.91;;;11.50;100.00
46836;BME280;32573;51.290;6.926;2023-04-19T01:47:31;101137.88;;;11.49;100.00
46836;BME280;32573;51.290;6.926;2023-04-19T01:50:01;101126.47;;;11.48;100.00
46836;BME280;32573;51.290;6.926;2023-04-19T01:52:30;101136.06;;;11.48;100.00
46836;BME280;32573;51.290;6.926;2023-04-19T01:55:00;101134.28;;;11.47;100.00
46836;BME280;32573;51.290;6.926;2023-04-19T01:57:29;101131.59;;;11.45;100.00
46836;BME280;32573;51.290;6.926;2023-04-19T01:59:58;101135.06;;;11.44;100.00
46836;BME280;32573;51.290;6.926;2023-04-19T02:02:27;101137.56;;;11.41;100.00
46836;BME280;32573;51.290;6.926;2023-04-19T02:04:56;101142.75;;;11.39;100.00
46836;BME280;32573;51.290;6.926;2023-04-19T02:07:26;101140.81;;;11.35;100.00
46836;BME280;32573;51.290;6.926;2023-04-19T02:09:57;101143.41;;;11.34;100.00
46836;BME280;32573;51.290;6.926;2023-04-19T02:12:28;101147.59;;;11.30;100.00
46836;BME280;32573;51.290;6.926;2023-04-19T02:14:57;101137.00;;;11.27;100.00
46836;BME280;32573;51.290;6.926;2023-04-19T02:17:30;101127.22;;;11.23;100.00
46836;BME280;32573;51.290;6.926;2023-04-19T02:20:00;101131.53;;;11.21;100.00
46836;BME280;32573;51.290;6.926;2023-04-19T02:22:28;101124.34;;;11.17;100.00
46836;BME280;32573;51.290;6.926;2023-04-19T02:24:58;101130.38;;;11.14;100.00
46836;BME280;32573;51.290;6.926;2023-04-19T02:27:31;101126.75;;;11.11;100.00
46836;BME280;32573;51.290;6.926;2023-04-19T02:29:59;101132.66;;;11.07;100.00
46836;BME280;32573;51.290;6.926;2023-04-19T02:32:29;101127.25;;;11.02;100.00
46836;BME280;32573;51.290;6.926;2023-04-19T02:34:58;101124.50;;;10.99;100.00
46836;BME280;32573;51.290;6.926;2023-04-19T02:37:28;101131.38;;;10.97;100.00
46836;BME280;32573;51.290;6.926;2023-04-19T02:39:57;101134.78;;;10.94;100.00
46836;BME280;32573;51.290;6.926;2023-04-19T02:42:28;101134.66;;;10.91;100.00
46836;BME280;32573;51.290;6.926;2023-04-19T02:44:58;101128.31;;;10.86;100.00
46836;BME280;32573;51.290;6.926;2023-04-19T02:47:26;101120.28;;;10.82;100.00
46836;BME280;32573;51.290;6.926;2023-04-19T02:49:55;101129.69;;;10.78;100.00
46836;BME280;32573;51.290;6.926;2023-04-19T02:52:25;101121.69;;;10.73;100.00
46836;BME280;32573;51.290;6.926;2023-04-19T02:54:54;101130.22;;;10.69;100.00
46836;BME280;32573;51.290;6.926;2023-04-19T02:57:22;101125.63;;;10.64;100.00
46836;BME280;32573;51.290;6.926;2023-04-19T02:59:51;101124.53;;;10.58;100.00
46836;BME280;32573;51.290;6.926;2023-04-19T03:02:21;101131.34;;;10.55;100.00
46836;BME280;32573;51.290;6.926;2023-04-19T03:04:50;101125.09;;;10.51;100.00
46836;BME280;32573;51.290;6.926;2023-04-19T03:07:20;101120.53;;;10.47;100.00
46836;BME280;32573;51.290;6.926;2023-04-19T03:09:48;101119.56;;;10.45;100.00
46836;BME280;32573;51.290;6.926;2023-04-19T03:12:19;101115.06;;;10.41;100.00
46836;BME280;32573;51.290;6.926;2023-04-19T03:14:48;101110.56;;;10.39;100.00
46836;BME280;32573;51.290;6.926;2023-04-19T03:17:16;101113.94;;;10.36;100.00
46836;BME280;32573;51.290;6.926;2023-04-19T03:19:47;101104.25;;;10.33;100.00
46836;BME280;32573;51.290;6.926;2023-04-19T03:22:15;101097.19;;;10.32;100.00
46836;BME280;32573;51.290;6.926;2023-04-19T03:24:44;101096.31;;;10.32;100.00
46836;BME280;32573;51.290;6.926;2023-04-19T03:27:22;101093.69;;;10.32;100.00
46836;BME280;32573;51.290;6.926;2023-04-19T03:29:56;101101.53;;;10.32;100.00
46836;BME280;32573;51.290;6.926;2023-04-19T03:32:26;101089.34;;;10.32;100.00
46836;BME280;32573;51.290;6.926;2023-04-19T03:34:56;101097.19;;;10.32;100.00
46836;BME280;32573;51.290;6.926;2023-04-19T03:37:24;101103.31;;;10.33;100.00
46836;BME280;32573;51.290;6.926;2023-04-19T03:39:53;101101.69;;;10.35;100.00
46836;BME280;32573;51.290;6.926;2023-04-19T03:42:28;101096.44;;;10.35;100.00
46836;BME280;32573;51.290;6.926;2023-04-19T03:45:09;101090.41;;;10.36;100.00
46836;BME280;32573;51.290;6.926;2023-04-19T03:47:43;101085.22;;;10.38;100.00
46836;BME280;32573;51.290;6.926;2023-04-19T03:50:14;101089.69;;;10.40;100.00
46836;BME280;32573;51.290;6.926;2023-04-19T03:52:46;101080.09;;;10.41;100.00
46836;BME280;32573;51.290;6.926;2023-04-19T03:55:14;101083.69;;;10.43;100.00
46836;BME280;32573;51.290;6.926;2023-04-19T03:57:43;101082.94;;;10.45;100.00
46836;BME280;32573;51.290;6.926;2023-04-19T04:00:25;101089.13;;;10.47;100.00
46836;BME280;32573;51.290;6.926;2023-04-19T04:02:58;101083.97;;;10.49;100.00
46836;BME280;32573;51.290;6.926;2023-04-19T04:05:29;101093.69;;;10.51;100.00
46836;BME280;32573;51.290;6.926;2023-04-19T04:07:59;101091.06;;;10.51;100.00
46836;BME280;32573;51.290;6.926;2023-04-19T04:10:28;101091.19;;;10.54;100.00
46836;BME280;32573;51.290;6.926;2023-04-19T04:12:57;101093.03;;;10.57;100.00
46836;BME280;32573;51.290;6.926;2023-04-19T04:15:35;101094.81;;;10.58;100.00
46836;BME280;32573;51.290;6.926;2023-04-19T04:18:04;101097.50;;;10.60;100.00
46836;BME280;32573;51.290;6.926;2023-04-19T04:20:36;101101.91;;;10.61;100.00
46836;BME280;32573;51.290;6.926;2023-04-19T04:23:08;101088.00;;;10.62;100.00
46836;BME280;32573;51.290;6.926;2023-04-19T04:25:42;101100.34;;;10.64;100.00
46836;BME280;32573;51.290;6.926;2023-04-19T04:28:13;101092.41;;;10.63;100.00
46836;BME280;32573;51.290;6.926;2023-04-19T04:30:42;101087.25;;;10.64;100.00
46836;BME280;32573;51.290;6.926;2023-04-19T04:33:11;101095.09;;;10.64;100.00
46836;BME280;32573;51.290;6.926;2023-04-19T04:35:45;101099.50;;;10.65;100.00
46836;BME280;32573;51.290;6.926;2023-04-19T04:38:20;101103.00;;;10.66;100.00
46836;BME280;32573;51.290;6.926;2023-04-19T04:40:53;101097.75;;;10.66;100.00
46836;BME280;32573;51.290;6.926;2023-04-19T04:43:23;101102.19;;;10.67;100.00
46836;BME280;32573;51.290;6.926;2023-04-19T04:45:56;101100.47;;;10.67;100.00
46836;BME280;32573;51.290;6.926;2023-04-19T04:48:30;101106.56;;;10.68;100.00
46836;BME280;32573;51.290;6.926;2023-04-19T04:51:00;101101.34;;;10.68;100.00
46836;BME280;32573;51.290;6.926;2023-04-19T04:53:29;101099.56;;;10.67;100.00
46836;BME280;32573;51.290;6.926;2023-04-19T04:55:59;101101.28;;;10.66;100.00
46836;BME280;32573;51.290;6.926;2023-04-19T04:58:31;101097.75;;;10.66;100.00
46836;BME280;32573;51.290;6.926;2023-04-19T05:01:03;101095.97;;;10.65;100.00
46836;BME280;32573;51.290;6.926;2023-04-19T05:03:37;101102.88;;;10.63;100.00
46836;BME280;32573;51.290;6.926;2023-04-19T05:06:15;101100.22;;;10.61;100.00
46836;BME280;32573;51.290;6.926;2023-04-19T05:08:44;101093.94;;;10.57;100.00
46836;BME280;32573;51.290;6.926;2023-04-19T05:11:32;101096.50;;;10.56;100.00
46836;BME280;32573;51.290;6.926;2023-04-19T05:14:01;101094.56;;;10.52;100.00
46836;BME280;32573;51.290;6.926;2023-04-19T05:16:32;101090.97;;;10.50;100.00
46836;BME280;32573;51.290;6.926;2023-04-19T05:19:02;101093.41;;;10.45;100.00
46836;BME280;32573;51.290;6.926;2023-04-19T05:21:39;101094.16;;;10.43;100.00
46836;BME280;32573;51.290;6.926;2023-04-19T05:24:09;101097.50;;;10.39;100.00
46836;BME280;32573;51.290;6.926;2023-04-19T05:26:38;101097.34;;;10.35;100.00
46836;BME280;32573;51.290;6.926;2023-04-19T05:29:11;101105.00;;;10.31;100.00
46836;BME280;32573;51.290;6.926;2023-04-19T05:31:45;101102.31;;;10.29;100.00
46836;BME280;32573;51.290;6.926;2023-04-19T05:34:33;101099.44;;;10.25;100.00
46836;BME280;32573;51.290;6.926;2023-04-19T05:37:04;101103.78;;;10.24;100.00
46836;BME280;32573;51.290;6.926;2023-04-19T05:39:32;101102.75;;;10.21;100.00
46836;BME280;32573;51.290;6.926;2023-04-19T05:42:01;101107.03;;;10.19;100.00
46836;BME280;32573;51.290;6.926;2023-04-19T05:44:30;101107.84;;;10.18;100.00
46836;BME280;32573;51.290;6.926;2023-04-19T05:46:59;101113.03;;;10.16;100.00
46836;BME280;32573;51.290;6.926;2023-04-19T05:49:51;101099.03;;;10.15;100.00
46836;BME280;32573;51.290;6.926;2023-04-19T05:52:28;101094.56;;;10.13;100.00
46836;BME280;32573;51.290;6.926;2023-04-19T05:54:58;101091.06;;;10.12;100.00
46836;BME280;32573;51.290;6.926;2023-04-19T05:57:28;101100.53;;;10.10;100.00
46836;BME280;32573;51.290;6.926;2023-04-19T05:59:58;101099.66;;;10.10;100.00
46836;BME280;32573;51.290;6.926;2023-04-19T06:02:39;101095.25;;;10.09;100.00
46836;BME280;32573;51.290;6.926;2023-04-19T06:05:12;101097.81;;;10.07;100.00
46836;BME280;32573;51.290;6.926;2023-04-19T06:07:44;101103.03;;;10.07;100.00
46836;BME280;32573;51.290;6.926;2023-04-19T06:10:21;101098.63;;;10.06;100.00
46836;BME280;32573;51.290;6.926;2023-04-19T06:12:55;101110.88;;;10.07;100.00
46836;BME280;32573;51.290;6.926;2023-04-19T06:15:24;101103.88;;;10.06;100.00
46836;BME280;32573;51.290;6.926;2023-04-19T06:17:53;101105.53;;;10.04;100.00
46836;BME280;32573;51.290;6.926;2023-04-19T06:20:25;101099.41;;;10.04;100.00
46836;BME280;32573;51.290;6.926;2023-04-19T06:22:55;101100.22;;;10.03;100.00
46836;BME280;32573;51.290;6.926;2023-04-19T06:25:24;101106.28;;;10.02;100.00
46836;BME280;32573;51.290;6.926;2023-04-19T06:27:52;101094.94;;;10.01;100.00
46836;BME280;32573;51.290;6.926;2023-04-19T06:30:21;101106.19;;;10.00;100.00
46836;BME280;32573;51.290;6.926;2023-04-19T06:32:50;101102.59;;;9.98;100.00
46836;BME280;32573;51.290;6.926;2023-04-19T06:35:20;101105.22;;;9.98;100.00
46836;BME280;32573;51.290;6.926;2023-04-19T06:37:48;101105.09;;;9.95;100.00
46836;BME280;32573;51.290;6.926;2023-04-19T06:40:20;101103.31;;;9.94;100.00
46836;BME280;32573;51.290;6.926;2023-04-19T06:42:49;101100.69;;;9.94;100.00
46836;BME280;32573;51.290;6.926;2023-04-19T06:45:18;101096.44;;;9.96;100.00
46836;BME280;32573;51.290;6.926;2023-04-19T06:47:48;101094.75;;;9.98;100.00
46836;BME280;32573;51.290;6.926;2023-04-19T06:50:17;101097.47;;;10.00;100.00
46836;BME280;32573;51.290;6.926;2023-04-19T06:52:46;101097.53;;;10.01;100.00
46836;BME280;32573;51.290;6.926;2023-04-19T06:55:14;101099.31;;;10.02;100.00
46836;BME280;32573;51.290;6.926;2023-04-19T06:57:44;101090.63;;;10.03;100.00
46836;BME280;32573;51.290;6.926;2023-04-19T07:00:15;101089.81;;;10.04;100.00
46836;BME280;32573;51.290;6.926;2023-04-19T07:02:44;101090.78;;;10.06;100.00
46836;BME280;32573;51.290;6.926;2023-04-19T07:05:12;101089.16;;;10.08;100.00
46836;BME280;32573;51.290;6.926;2023-04-19T07:07:41;101089.19;;;10.10;100.00
46836;BME280;32573;51.290;6.926;2023-04-19T07:10:10;101089.31;;;10.13;100.00
46836;BME280;32573;51.290;6.926;2023-04-19T07:12:40;101091.19;;;10.15;100.00
46836;BME280;32573;51.290;6.926;2023-04-19T07:15:10;101100.97;;;10.20;100.00
46836;BME280;32573;51.290;6.926;2023-04-19T07:17:39;101088.09;;;10.24;100.00
46836;BME280;32573;51.290;6.926;2023-04-19T07:20:08;101087.50;;;10.30;100.00
46836;BME280;32573;51.290;6.926;2023-04-19T07:22:38;101081.63;;;10.35;100.00
46836;BME280;32573;51.290;6.926;2023-04-19T07:25:10;101085.34;;;10.41;100.00
46836;BME280;32573;51.290;6.926;2023-04-19T07:27:39;101075.06;;;10.45;100.00
46836;BME280;32573;51.290;6.926;2023-04-19T07:30:10;101080.59;;;10.51;100.00
46836;BME280;32573;51.290;6.926;2023-04-19T07:32:39;101081.56;;;10.53;100.00
46836;BME280;32573;51.290;6.926;2023-04-19T07:35:09;101072.94;;;10.56;100.00
46836;BME280;32573;51.290;6.926;2023-04-19T07:37:38;101077.41;;;10.58;100.00
46836;BME280;32573;51.290;6.926;2023-04-19T07:40:09;101074.03;;;10.61;100.00
46836;BME280;32573;51.290;6.926;2023-04-19T07:42:38;101072.41;;;10.65;100.00
46836;BME280;32573;51.290;6.926;2023-04-19T07:45:07;101067.38;;;10.69;100.00
46836;BME280;32573;51.290;6.926;2023-04-19T07:47:38;101071.97;;;10.75;100.00
46836;BME280;32573;51.290;6.926;2023-04-19T07:50:08;101069.47;;;10.78;100.00
46836;BME280;32573;51.290;6.926;2023-04-19T07:52:37;101074.13;;;10.85;100.00
46836;BME280;32573;51.290;6.926;2023-04-19T07:55:06;101074.25;;;10.88;100.00
46836;BME280;32573;51.290;6.926;2023-04-19T07:57:35;101070.94;;;10.92;100.00
46836;BME280;32573;51.290;6.926;2023-04-19T08:00:05;101067.63;;;10.96;100.00
46836;BME280;32573;51.290;6.926;2023-04-19T08:02:44;101071.34;;;11.01;100.00
46836;BME280;32573;51.290;6.926;2023-04-19T08:05:15;101077.56;;;11.05;100.00
46836;BME280;32573;51.290;6.926;2023-04-19T08:07:44;101072.41;;;11.07;100.00
46836;BME280;32573;51.290;6.926;2023-04-19T08:10:14;101072.53;;;11.10;100.00
46836;BME280;32573;51.290;6.926;2023-04-19T08:12:42;101070.03;;;11.13;100.00
46836;BME280;32573;51.290;6.926;2023-04-19T08:15:27;101071.94;;;11.17;100.00
46836;BME280;32573;51.290;6.926;2023-04-19T08:18:18;101075.66;;;11.22;100.00
46836;BME280;32573;51.290;6.926;2023-04-19T08:20:47;101070.59;;;11.27;100.00
46836;BME280;32573;51.290;6.926;2023-04-19T08:23:16;101070.78;;;11.31;100.00
46836;BME280;32573;51.290;6.926;2023-04-19T08:25:53;101076.13;;;11.34;100.00
46836;BME280;32573;51.290;6.926;2023-04-19T08:28:22;101065.66;;;11.34;100.00
46836;BME280;32573;51.290;6.926;2023-04-19T08:30:51;101073.63;;;11.37;100.00
46836;BME280;32573;51.290;6.926;2023-04-19T08:33:22;101067.56;;;11.38;100.00
46836;BME280;32573;51.290;6.926;2023-04-19T08:35:52;101070.13;;;11.37;100.00
46836;BME280;32573;51.290;6.926;2023-04-19T08:38:21;101066.63;;;11.36;100.00
46836;BME280;32573;51.290;6.926;2023-04-19T08:40:51;101071.97;;;11.39;100.00
46836;BME280;32573;51.290;6.926;2023-04-19T08:43:24;101065.88;;;11.40;100.00
46836;BME280;32573;51.290;6.926;2023-04-19T08:45:55;101066.78;;;11.41;100.00
46836;BME280;32573;51.290;6.926;2023-04-19T08:48:27;101078.22;;;11.43;100.00
46836;BME280;32573;51.290;6.926;2023-04-19T08:50:56;101068.66;;;11.43;100.00
46836;BME280;32573;51.290;6.926;2023-04-19T08:53:33;101078.22;;;11.43;100.00
46836;BME280;32573;51.290;6.926;2023-04-19T08:56:03;101075.59;;;11.43;100.00
46836;BME280;32573;51.290;6.926;2023-04-19T08:58:44;101075.53;;;11.41;100.00
46836;BME280;32573;51.290;6.926;2023-04-19T09:01:33;101073.88;;;11.43;100.00
46836;BME280;32573;51.290;6.926;2023-04-19T09:04:05;101073.16;;;11.48;100.00
46836;BME280;32573;51.290;6.926;2023-04-19T09:06:37;101073.22;;;11.49;100.00
46836;BME280;32573;51.290;6.926;2023-04-19T09:09:15;101073.22;;;11.49;100.00
46836;BME280;32573;51.290;6.926;2023-04-19T09:11:47;101068.06;;;11.51;100.00
46836;BME280;32573;51.290;6.926;2023-04-19T09:14:18;101058.50;;;11.53;100.00
46836;BME280;32573;51.290;6.926;2023-04-19T09:16:47;101056.00;;;11.56;100.00
46836;BME280;32573;51.290;6.926;2023-04-19T09:19:19;101061.38;;;11.59;100.00
46836;BME280;32573;51.290;6.926;2023-04-19T09:21:51;101064.94;;;11.61;100.00
46836;BME280;32573;51.290;6.926;2023-04-19T09:24:36;101060.81;;;11.68;100.00
46836;BME280;32573;51.290;6.926;2023-04-19T09:27:08;101050.47;;;11.71;100.00
46836;BME280;32573;51.290;6.926;2023-04-19T09:29:39;101046.22;;;11.74;100.00
46836;BME280;32573;51.290;6.926;2023-04-19T09:32:10;101049.78;;;11.76;100.00
46836;BME280;32573;51.290;6.926;2023-04-19T09:34:50;101047.34;;;11.81;100.00
46836;BME280;32573;51.290;6.926;2023-04-19T09:37:22;101033.44;;;11.83;100.00
46836;BME280;32573;51.290;6.926;2023-04-19T09:39:54;101039.72;;;11.87;100.00
46836;BME280;32573;51.290;6.926;2023-04-19T09:42:22;101043.38;;;11.91;100.00
46836;BME280;32573;51.290;6.926;2023-04-19T09:45:11;101040.78;;;11.92;100.00
46836;BME280;32573;51.290;6.926;2023-04-19T09:47:59;101044.44;;;11.96;100.00
46836;BME280;32573;51.290;6.926;2023-04-19T09:50:32;101033.19;;;12.00;100.00
46836;BME280;32573;51.290;6.926;2023-04-19T09:53:22;101040.25;;;12.01;100.00
46836;BME280;32573;51.290;6.926;2023-04-19T09:55:53;101036.75;;;12.02;100.00
46836;BME280;32573;51.290;6.926;2023-04-19T09:58:28;101047.31;;;12.03;100.00
46836;BME280;32573;51.290;6.926;2023-04-19T10:01:17;101035.97;;;12.04;100.00
46836;BME280;32573;51.290;6.926;2023-04-19T10:03:48;101043.94;;;12.07;100.00
46836;BME280;32573;51.290;6.926;2023-04-19T10:06:20;101027.50;;;12.12;100.00
46836;BME280;32573;51.290;6.926;2023-04-19T10:08:52;101025.06;;;12.18;100.00
46836;BME280;32573;51.290;6.926;2023-04-19T10:11:24;101028.81;;;12.24;100.00
46836;BME280;32573;51.290;6.926;2023-04-19T10:13:56;101028.13;;;12.30;100.00
46836;BME280;32573;51.290;6.926;2023-04-19T10:16:29;101030.88;;;12.33;100.00
46836;BME280;32573;51.290;6.926;2023-04-19T10:19:00;101032.59;;;12.33;100.00
46836;BME280;32573;51.290;6.926;2023-04-19T10:21:34;101029.25;;;12.37;100.00
46836;BME280;32573;51.290;6.926;2023-04-19T10:24:05;101026.72;;;12.40;100.00
46836;BME280;32573;51.290;6.926;2023-04-19T10:29:55;101014.00;;;12.52;100.00
46836;BME280;32573;51.290;6.926;2023-04-19T10:32:26;101016.84;;;12.58;100.00
46836;BME280;32573;51.290;6.926;2023-04-19T10:35:00;101014.50;;;12.67;100.00
46836;BME280;32573;51.290;6.926;2023-04-19T10:37:31;101005.81;;;12.68;100.00
46836;BME280;32573;51.290;6.926;2023-04-19T10:40:00;100998.91;;;12.72;100.00
46836;BME280;32573;51.290;6.926;2023-04-19T10:45:38;101001.06;;;12.85;100.00
46836;BME280;32573;51.290;6.926;2023-04-19T10:48:30;101007.50;;;12.93;100.00
46836;BME280;32573;51.290;6.926;2023-04-19T10:51:01;101015.53;;;12.98;100.00
46836;BME280;32573;51.290;6.926;2023-04-19T10:53:49;101012.22;;;13.05;100.00
46836;BME280;32573;51.290;6.926;2023-04-19T10:56:19;101021.19;;;13.10;100.00
46836;BME280;32573;51.290;6.926;2023-04-19T10:59:13;101016.81;;;13.11;89.59
46836;BME280;32573;51.290;6.926;2023-04-19T11:01:50;101004.69;;;13.16;100.00
46836;BME280;32573;51.290;6.926;2023-04-19T11:04:22;101004.72;;;13.17;100.00
46836;BME280;32573;51.290;6.926;2023-04-19T11:06:59;100996.97;;;13.21;100.00
46836;BME280;32573;51.290;6.926;2023-04-19T11:09:35;101002.44;;;13.27;100.00
46836;BME280;32573;51.290;6.926;2023-04-19T11:12:06;100996.50;;;13.34;100.00
46836;BME280;32573;51.290;6.926;2023-04-19T11:14:36;100995.19;;;13.48;100.00
46836;BME280;32573;51.290;6.926;2023-04-19T11:17:14;100990.31;;;13.62;100.00
46836;BME280;32573;51.290;6.926;2023-04-19T11:19:44;100981.84;;;13.72;100.00
46836;BME280;32573;51.290;6.926;2023-04-19T11:22:13;100983.94;;;13.84;100.00
46836;BME280;32573;51.290;6.926;2023-04-19T11:24:47;100979.75;;;13.92;100.00
46836;BME280;32573;51.290;6.926;2023-04-19T11:27:15;100986.09;;;13.99;100.00
46836;BME280;32573;51.290;6.926;2023-04-19T11:29:44;100984.41;;;14.02;100.00
46836;BME280;32573;51.290;6.926;2023-04-19T11:32:13;100981.91;;;14.06;100.00
46836;BME280;32573;51.290;6.926;2023-04-19T11:34:42;100971.31;;;14.04;100.00
46836;BME280;32573;51.290;6.926;2023-04-19T11:37:11;100973.22;;;14.10;100.00
46836;BME280;32573;51.290;6.926;2023-04-19T11:39:47;100966.25;;;14.12;100.00
46836;BME280;32573;51.290;6.926;2023-04-19T11:42:17;100962.78;;;14.13;100.00
46836;BME280;32573;51.290;6.926;2023-04-19T11:44:50;100966.31;;;14.15;100.00
46836;BME280;32573;51.290;6.926;2023-04-19T11:47:19;100962.03;;;14.18;100.00
46836;BME280;32573;51.290;6.926;2023-04-19T11:49:48;100943.00;;;14.29;100.00
46836;BME280;32573;51.290;6.926;2023-04-19T11:52:21;100960.84;;;14.40;100.00
46836;BME280;32573;51.290;6.926;2023-04-19T11:54:52;100949.69;;;14.51;100.00
46836;BME280;32573;51.290;6.926;2023-04-19T11:57:26;100944.59;;;14.57;100.00
46836;BME280;32573;51.290;6.926;2023-04-19T12:00:04;100947.22;;;14.55;100.00
46836;BME280;32573;51.290;6.926;2023-04-19T12:02:44;100942.00;;;14.58;100.00
46836;BME280;32573;51.290;6.926;2023-04-19T12:05:14;100940.38;;;14.65;100.00
46836;BME280;32573;51.290;6.926;2023-04-19T12:08:00;100930.66;;;14.61;73.86
46836;BME280;32573;51.290;6.926;2023-04-19T12:10:31;100936.88;;;14.64;100.00
46836;BME280;32573;51.290;6.926;2023-04-19T12:13:00;100936.22;;;14.73;100.00
46836;BME280;32573;51.290;6.926;2023-04-19T12:15:45;100931.94;;;14.78;100.00
46836;BME280;32573;51.290;6.926;2023-04-19T12:18:15;100914.59;;;14.88;100.00
46836;BME280;32573;51.290;6.926;2023-04-19T12:20:45;100914.03;;;15.03;100.00
46836;BME280;32573;51.290;6.926;2023-04-19T12:23:16;100919.44;;;15.09;94.75
46836;BME280;32573;51.290;6.926;2023-04-19T12:25:47;100915.13;;;15.13;100.00
46836;BME280;32573;51.290;6.926;2023-04-19T12:28:16;100907.41;;;15.22;100.00
46836;BME280;32573;51.290;6.926;2023-04-19T12:30:45;100910.41;;;15.39;100.00
46836;BME280;32573;51.290;6.926;2023-04-19T12:33:13;100908.94;;;15.54;100.00
46836;BME280;32573;51.290;6.926;2023-04-19T12:35:42;100903.91;;;15.67;100.00
46836;BME280;32573;51.290;6.926;2023-04-19T12:38:12;100901.53;;;15.78;100.00
46836;BME280;32573;51.290;6.926;2023-04-19T12:40:40;100899.94;;;15.89;100.00
46836;BME280;32573;51.290;6.926;2023-04-19T12:43:14;100891.38;;;16.02;100.00
46836;BME280;32573;51.290;6.926;2023-04-19T12:45:43;100896.88;;;16.14;100.00
46836;BME280;32573;51.290;6.926;2023-04-19T12:48:12;100904.09;;;16.25;100.00
46836;BME280;32573;51.290;6.926;2023-04-19T12:50:40;100898.03;;;16.32;100.00
46836;BME280;32573;51.290;6.926;2023-04-19T12:53:09;100894.69;;;16.41;100.00
46836;BME280;32573;51.290;6.926;2023-04-19T12:55:38;100890.47;;;16.53;100.00
46836;BME280;32573;51.290;6.926;2023-04-19T12:58:06;100895.94;;;16.66;100.00
46836;BME280;32573;51.290;6.926;2023-04-19T13:00:37;100896.97;;;16.77;100.00
46836;BME280;32573;51.290;6.926;2023-04-19T13:03:05;100895.34;;;16.84;100.00
46836;BME280;32573;51.290;6.926;2023-04-19T13:05:35;100884.00;;;16.92;100.00
46836;BME280;32573;51.290;6.926;2023-04-19T13:08:04;100865.63;;;17.00;100.00